sensor_id;sensor_type;location;lat;lon;timestamp;P1;durP1;ratioP1;P2;durP2;ratioP2
4323;SDS011;2175;51.018;6.994;2022-08-05T00:01:00;8.63;;;4.43;;
4323;SDS011;2175;51.018;6.994;2022-08-05T00:03:26;8.83;;;4.50;;
4323;SDS011;2175;51.018;6.994;2022-08-05T00:05:52;8.10;;;4.53;;
4323;SDS011;2175;51.018;6.994;2022-08-05T00:08:17;9.77;;;4.70;;
4323;SDS011;2175;51.018;6.994;2022-08-05T00:10:43;8.33;;;4.40;;
4323;SDS011;2175;51.018;6.994;2022-08-05T00:13:09;7.60;;;4.30;;
4323;SDS011;2175;51.018;6.994;2022-08-05T00:15:35;7.20;;;4.40;;
4323;SDS011;2175;51.018;6.994;2022-08-05T00:18:00;8.70;;;4.70;;
4323;SDS011;2175;51.018;6.994;2022-08-05T00:20:26;8.77;;;4.13;;
4323;SDS011;2175;51.018;6.994;2022-08-05T00:22:52;6.27;;;4.67;;
4323;SDS011;2175;51.018;6.994;2022-08-05T00:25:17;6.23;;;4.80;;
4323;SDS011;2175;51.018;6.994;2022-08-05T00:27:43;7.63;;;4.93;;
4323;SDS011;2175;51.018;6.994;2022-08-05T00:30:09;9.23;;;4.20;;
4323;SDS011;2175;51.018;6.994;2022-08-05T00:32:34;10.70;;;4.13;;
4323;SDS011;2175;51.018;6.994;2022-08-05T00:35:00;7.37;;;4.60;;
4323;SDS011;2175;51.018;6.994;2022-08-05T00:37:26;7.53;;;4.57;;
4323;SDS011;2175;51.018;6.994;2022-08-05T00:39:51;11.33;;;4.80;;
4323;SDS011;2175;51.018;6.994;2022-08-05T00:42:30;7.17;;;4.10;;
4323;SDS011;2175;51.018;6.994;2022-08-05T00:44:57;8.30;;;4.93;;
4323;SDS011;2175;51.018;6.994;2022-08-05T00:47:23;11.40;;;4.97;;
4323;SDS011;2175;51.018;6.994;2022-08-05T00:49:48;7.87;;;4.77;;
4323;SDS011;2175;51.018;6.994;2022-08-05T00:52:14;7.20;;;4.80;;
4323;SDS011;2175;51.018;6.994;2022-08-05T00:54:39;6.60;;;4.13;;
4323;SDS011;2175;51.018;6.994;2022-08-05T00:57:05;10.13;;;4.30;;
4323;SDS011;2175;51.018;6.994;2022-08-05T00:59:31;6.10;;;4.37;;
4323;SDS011;2175;51.018;6.994;2022-08-05T01:01:56;11.60;;;4.77;;
4323;SDS011;2175;51.018;6.994;2022-08-05T01:04:22;6.03;;;4.43;;
4323;SDS011;2175;51.018;6.994;2022-08-05T01:06:47;6.13;;;4.03;;
4323;SDS011;2175;51.018;6.994;2022-08-05T01:09:13;7.13;;;4.00;;
4323;SDS011;2175;51.018;6.994;2022-08-05T01:11:38;9.20;;;4.83;;
4323;SDS011;2175;51.018;6.994;2022-08-05T01:14:09;10.80;;;5.10;;
4323;SDS011;2175;51.018;6.994;2022-08-05T01:19:38;10.20;;;5.07;;
4323;SDS011;2175;51.018;6.994;2022-08-05T01:25:22;5.57;;;4.23;;
4323;SDS011;2175;51.018;6.994;2022-08-05T01:30:55;7.80;;;4.80;;
4323;SDS011;2175;51.018;6.994;2022-08-05T01:33:42;6.97;;;4.83;;
4323;SDS011;2175;51.018;6.994;2022-08-05T01:36:16;7.83;;;5.03;;
4323;SDS011;2175;51.018;6.994;2022-08-05T01:38:44;10.80;;;5.97;;
4323;SDS011;2175;51.018;6.994;2022-08-05T01:41:12;9.47;;;5.20;;
4323;SDS011;2175;51.018;6.994;2022-08-05T01:43:40;11.40;;;5.60;;
4323;SDS011;2175;51.018;6.994;2022-08-05T01:46:07;9.23;;;5.90;;
4323;SDS011;2175;51.018;6.994;2022-08-05T01:48:34;11.47;;;5.60;;
4323;SDS011;2175;51.018;6.994;2022-08-05T01:51:01;15.63;;;5.43;;
4323;SDS011;2175;51.018;6.994;2022-08-05T01:53:28;15.47;;;6.20;;
4323;SDS011;2175;51.018;6.994;2022-08-05T01:55:56;9.77;;;5.50;;
4323;SDS011;2175;51.018;6.994;2022-08-05T01:58:24;11.33;;;5.90;;
4323;SDS011;2175;51.018;6.994;2022-08-05T02:00:53;7.70;;;5.23;;
4323;SDS011;2175;51.018;6.994;2022-08-05T02:03:24;9.07;;;5.60;;
4323;SDS011;2175;51.018;6.994;2022-08-05T02:05:55;9.60;;;5.17;;
4323;SDS011;2175;51.018;6.994;2022-08-05T02:08:21;11.70;;;5.50;;
4323;SDS011;2175;51.018;6.994;2022-08-05T02:10:48;9.90;;;5.23;;
4323;SDS011;2175;51.018;6.994;2022-08-05T02:13:18;11.00;;;5.23;;
4323;SDS011;2175;51.018;6.994;2022-08-05T02:18:59;12.93;;;5.50;;
4323;SDS011;2175;51.018;6.994;2022-08-05T02:21:27;11.47;;;5.30;;
4323;SDS011;2175;51.018;6.994;2022-08-05T02:23:58;10.97;;;6.10;;
4323;SDS011;2175;51.018;6.994;2022-08-05T02:26:36;13.43;;;6.97;;
4323;SDS011;2175;51.018;6.994;2022-08-05T02:29:05;10.83;;;6.40;;
4323;SDS011;2175;51.018;6.994;2022-08-05T02:31:34;13.47;;;7.07;;
4323;SDS011;2175;51.018;6.994;2022-08-05T02:34:05;16.23;;;8.33;;
4323;SDS011;2175;51.018;6.994;2022-08-05T02:36:33;13.17;;;7.47;;
4323;SDS011;2175;51.018;6.994;2022-08-05T02:39:02;12.00;;;7.83;;
4323;SDS011;2175;51.018;6.994;2022-08-05T02:41:30;20.30;;;10.27;;
4323;SDS011;2175;51.018;6.994;2022-08-05T02:43:57;16.03;;;9.33;;
4323;SDS011;2175;51.018;6.994;2022-08-05T02:46:25;21.23;;;11.67;;
4323;SDS011;2175;51.018;6.994;2022-08-05T02:48:52;25.77;;;10.70;;
4323;SDS011;2175;51.018;6.994;2022-08-05T02:51:19;24.33;;;12.27;;
4323;SDS011;2175;51.018;6.994;2022-08-05T02:53:45;21.70;;;11.70;;
4323;SDS011;2175;51.018;6.994;2022-08-05T02:56:12;26.90;;;13.90;;
4323;SDS011;2175;51.018;6.994;2022-08-05T02:58:39;24.43;;;12.57;;
4323;SDS011;2175;51.018;6.994;2022-08-05T03:01:05;24.90;;;15.30;;
4323;SDS011;2175;51.018;6.994;2022-08-05T03:03:33;37.20;;;17.70;;
4323;SDS011;2175;51.018;6.994;2022-08-05T03:06:06;18.93;;;11.80;;
4323;SDS011;2175;51.018;6.994;2022-08-05T03:08:34;22.00;;;13.03;;
4323;SDS011;2175;51.018;6.994;2022-08-05T03:11:01;15.03;;;12.47;;
4323;SDS011;2175;51.018;6.994;2022-08-05T03:13:27;22.73;;;13.57;;
4323;SDS011;2175;51.018;6.994;2022-08-05T03:15:52;18.03;;;12.87;;
4323;SDS011;2175;51.018;6.994;2022-08-05T03:18:18;20.47;;;12.77;;
4323;SDS011;2175;51.018;6.994;2022-08-05T03:20:43;18.80;;;13.53;;
4323;SDS011;2175;51.018;6.994;2022-08-05T03:23:09;17.33;;;12.30;;
4323;SDS011;2175;51.018;6.994;2022-08-05T03:25:36;17.70;;;13.10;;
4323;SDS011;2175;51.018;6.994;2022-08-05T03:28:03;18.90;;;12.20;;
4323;SDS011;2175;51.018;6.994;2022-08-05T03:30:31;14.87;;;11.87;;
4323;SDS011;2175;51.018;6.994;2022-08-05T03:32:57;17.20;;;11.97;;
4323;SDS011;2175;51.018;6.994;2022-08-05T03:35:24;15.50;;;11.70;;
4323;SDS011;2175;51.018;6.994;2022-08-05T03:37:52;22.07;;;12.60;;
4323;SDS011;2175;51.018;6.994;2022-08-05T03:40:20;17.10;;;12.10;;
4323;SDS011;2175;51.018;6.994;2022-08-05T03:42:46;17.50;;;12.30;;
4323;SDS011;2175;51.018;6.994;2022-08-05T03:45:11;18.70;;;14.07;;
4323;SDS011;2175;51.018;6.994;2022-08-05T03:47:37;19.90;;;13.83;;
4323;SDS011;2175;51.018;6.994;2022-08-05T03:50:03;25.83;;;15.00;;
4323;SDS011;2175;51.018;6.994;2022-08-05T03:52:31;18.10;;;14.07;;
4323;SDS011;2175;51.018;6.994;2022-08-05T03:55:02;24.60;;;15.43;;
4323;SDS011;2175;51.018;6.994;2022-08-05T03:57:34;22.03;;;17.27;;
4323;SDS011;2175;51.018;6.994;2022-08-05T04:00:10;22.50;;;16.93;;
4323;SDS011;2175;51.018;6.994;2022-08-05T04:02:37;25.07;;;17.47;;
4323;SDS011;2175;51.018;6.994;2022-08-05T04:05:07;21.70;;;16.23;;
4323;SDS011;2175;51.018;6.994;2022-08-05T04:07:34;18.40;;;15.73;;
4323;SDS011;2175;51.018;6.994;2022-08-05T04:10:00;18.73;;;15.60;;
4323;SDS011;2175;51.018;6.994;2022-08-05T04:12:27;22.90;;;16.70;;
4323;SDS011;2175;51.018;6.994;2022-08-05T04:14:52;22.27;;;16.30;;
4323;SDS011;2175;51.018;6.994;2022-08-05T04:17:18;18.80;;;15.37;;
4323;SDS011;2175;51.018;6.994;2022-08-05T04:19:45;19.87;;;17.10;;
4323;SDS011;2175;51.018;6.994;2022-08-05T04:22:11;21.03;;;17.70;;
4323;SDS011;2175;51.018;6.994;2022-08-05T04:24:38;22.40;;;18.20;;
4323;SDS011;2175;51.018;6.994;2022-08-05T04:27:05;20.43;;;17.30;;
4323;SDS011;2175;51.018;6.994;2022-08-05T04:29:30;23.10;;;17.80;;
4323;SDS011;2175;51.018;6.994;2022-08-05T04:31:56;20.47;;;16.80;;
4323;SDS011;2175;51.018;6.994;2022-08-05T04:34:21;21.77;;;18.73;;
4323;SDS011;2175;51.018;6.994;2022-08-05T04:36:47;21.33;;;19.00;;
4323;SDS011;2175;51.018;6.994;2022-08-05T04:39:13;25.47;;;19.67;;
4323;SDS011;2175;51.018;6.994;2022-08-05T04:41:38;22.83;;;19.47;;
4323;SDS011;2175;51.018;6.994;2022-08-05T04:44:04;20.70;;;18.50;;
4323;SDS011;2175;51.018;6.994;2022-08-05T04:46:30;25.70;;;20.73;;
4323;SDS011;2175;51.018;6.994;2022-08-05T04:48:55;22.37;;;19.47;;
4323;SDS011;2175;51.018;6.994;2022-08-05T04:51:21;22.30;;;19.87;;
4323;SDS011;2175;51.018;6.994;2022-08-05T04:53:47;25.10;;;20.50;;
4323;SDS011;2175;51.018;6.994;2022-08-05T04:56:12;29.37;;;25.63;;
4323;SDS011;2175;51.018;6.994;2022-08-05T04:58:38;31.57;;;28.30;;
4323;SDS011;2175;51.018;6.994;2022-08-05T05:01:05;43.60;;;34.63;;
4323;SDS011;2175;51.018;6.994;2022-08-05T05:03:30;45.33;;;35.50;;
4323;SDS011;2175;51.018;6.994;2022-08-05T05:05:56;38.70;;;33.60;;
4323;SDS011;2175;51.018;6.994;2022-08-05T05:08:21;42.80;;;34.70;;
4323;SDS011;2175;51.018;6.994;2022-08-05T05:10:47;47.00;;;34.23;;
4323;SDS011;2175;51.018;6.994;2022-08-05T05:13:14;48.57;;;37.20;;
4323;SDS011;2175;51.018;6.994;2022-08-05T05:15:41;45.67;;;36.00;;
4323;SDS011;2175;51.018;6.994;2022-08-05T05:18:08;42.27;;;37.60;;
4323;SDS011;2175;51.018;6.994;2022-08-05T05:20:34;44.47;;;36.87;;
4323;SDS011;2175;51.018;6.994;2022-08-05T05:23:00;46.63;;;39.53;;
4323;SDS011;2175;51.018;6.994;2022-08-05T05:25:30;51.53;;;40.73;;
4323;SDS011;2175;51.018;6.994;2022-08-05T05:27:56;46.03;;;40.20;;
4323;SDS011;2175;51.018;6.994;2022-08-05T05:30:22;46.80;;;38.53;;
4323;SDS011;2175;51.018;6.994;2022-08-05T05:32:48;50.10;;;40.10;;
4323;SDS011;2175;51.018;6.994;2022-08-05T05:35:13;49.43;;;39.23;;
4323;SDS011;2175;51.018;6.994;2022-08-05T05:37:50;46.97;;;38.43;;
4323;SDS011;2175;51.018;6.994;2022-08-05T05:40:18;49.03;;;40.93;;
4323;SDS011;2175;51.018;6.994;2022-08-05T05:42:46;42.87;;;38.27;;
4323;SDS011;2175;51.018;6.994;2022-08-05T05:45:12;44.73;;;36.73;;
4323;SDS011;2175;51.018;6.994;2022-08-05T05:47:38;46.73;;;38.07;;
4323;SDS011;2175;51.018;6.994;2022-08-05T05:50:05;75.03;;;57.53;;
4323;SDS011;2175;51.018;6.994;2022-08-05T05:52:32;86.10;;;62.27;;
4323;SDS011;2175;51.018;6.994;2022-08-05T05:55:01;88.17;;;63.20;;
4323;SDS011;2175;51.018;6.994;2022-08-05T05:57:29;84.00;;;61.97;;
4323;SDS011;2175;51.018;6.994;2022-08-05T05:59:54;82.07;;;61.93;;
4323;SDS011;2175;51.018;6.994;2022-08-05T06:02:20;89.13;;;62.00;;
4323;SDS011;2175;51.018;6.994;2022-08-05T06:04:46;85.90;;;61.67;;
4323;SDS011;2175;51.018;6.994;2022-08-05T06:07:12;91.87;;;61.90;;
4323;SDS011;2175;51.018;6.994;2022-08-05T06:09:37;77.53;;;56.80;;
4323;SDS011;2175;51.018;6.994;2022-08-05T06:12:03;83.17;;;59.50;;
4323;SDS011;2175;51.018;6.994;2022-08-05T06:14:29;80.90;;;59.27;;
4323;SDS011;2175;51.018;6.994;2022-08-05T06:16:55;86.93;;;61.20;;
4323;SDS011;2175;51.018;6.994;2022-08-05T06:19:21;85.60;;;60.53;;
4323;SDS011;2175;51.018;6.994;2022-08-05T06:21:46;81.83;;;59.47;;
4323;SDS011;2175;51.018;6.994;2022-08-05T06:24:12;78.67;;;57.60;;
4323;SDS011;2175;51.018;6.994;2022-08-05T06:26:39;75.37;;;53.10;;
4323;SDS011;2175;51.018;6.994;2022-08-05T06:29:04;72.43;;;51.20;;
4323;SDS011;2175;51.018;6.994;2022-08-05T06:31:30;68.30;;;48.63;;
4323;SDS011;2175;51.018;6.994;2022-08-05T06:33:56;73.90;;;50.70;;
4323;SDS011;2175;51.018;6.994;2022-08-05T06:36:21;73.80;;;52.40;;
4323;SDS011;2175;51.018;6.994;2022-08-05T06:38:47;78.50;;;51.97;;
4323;SDS011;2175;51.018;6.994;2022-08-05T06:41:17;71.63;;;51.53;;
4323;SDS011;2175;51.018;6.994;2022-08-05T06:43:43;86.57;;;59.77;;
4323;SDS011;2175;51.018;6.994;2022-08-05T06:46:09;89.10;;;61.27;;
4323;SDS011;2175;51.018;6.994;2022-08-05T06:48:34;84.23;;;61.67;;
4323;SDS011;2175;51.018;6.994;2022-08-05T06:51:00;84.33;;;61.03;;
4323;SDS011;2175;51.018;6.994;2022-08-05T06:53:28;71.30;;;51.43;;
4323;SDS011;2175;51.018;6.994;2022-08-05T06:55:53;68.63;;;54.30;;
4323;SDS011;2175;51.018;6.994;2022-08-05T06:58:19;58.70;;;47.40;;
4323;SDS011;2175;51.018;6.994;2022-08-05T07:00:44;45.93;;;35.63;;
4323;SDS011;2175;51.018;6.994;2022-08-05T07:03:10;47.53;;;38.63;;
4323;SDS011;2175;51.018;6.994;2022-08-05T07:05:36;46.10;;;39.30;;
4323;SDS011;2175;51.018;6.994;2022-08-05T07:08:01;54.73;;;44.73;;
4323;SDS011;2175;51.018;6.994;2022-08-05T07:10:27;54.17;;;43.93;;
4323;SDS011;2175;51.018;6.994;2022-08-05T07:12:52;53.47;;;40.43;;
4323;SDS011;2175;51.018;6.994;2022-08-05T07:15:36;53.50;;;41.23;;
4323;SDS011;2175;51.018;6.994;2022-08-05T07:18:21;62.20;;;48.73;;
4323;SDS011;2175;51.018;6.994;2022-08-05T07:20:46;72.60;;;53.20;;
4323;SDS011;2175;51.018;6.994;2022-08-05T07:23:12;83.87;;;61.77;;
4323;SDS011;2175;51.018;6.994;2022-08-05T07:25:37;80.07;;;61.77;;
4323;SDS011;2175;51.018;6.994;2022-08-05T07:28:03;77.73;;;58.70;;
4323;SDS011;2175;51.018;6.994;2022-08-05T07:30:32;58.60;;;48.77;;
4323;SDS011;2175;51.018;6.994;2022-08-05T07:33:00;57.57;;;46.43;;
4323;SDS011;2175;51.018;6.994;2022-08-05T07:35:26;61.50;;;48.57;;
4323;SDS011;2175;51.018;6.994;2022-08-05T07:37:52;65.37;;;50.00;;
4323;SDS011;2175;51.018;6.994;2022-08-05T07:40:17;67.27;;;53.23;;
4323;SDS011;2175;51.018;6.994;2022-08-05T07:42:43;62.27;;;48.90;;
4323;SDS011;2175;51.018;6.994;2022-08-05T07:45:09;58.20;;;48.70;;
4323;SDS011;2175;51.018;6.994;2022-08-05T07:47:34;58.00;;;44.57;;
4323;SDS011;2175;51.018;6.994;2022-08-05T07:50:00;46.37;;;38.77;;
4323;SDS011;2175;51.018;6.994;2022-08-05T07:52:26;45.60;;;38.07;;
4323;SDS011;2175;51.018;6.994;2022-08-05T07:54:52;49.13;;;37.77;;
4323;SDS011;2175;51.018;6.994;2022-08-05T07:57:17;41.70;;;36.53;;
4323;SDS011;2175;51.018;6.994;2022-08-05T07:59:43;49.33;;;40.10;;
4323;SDS011;2175;51.018;6.994;2022-08-05T08:02:09;42.63;;;35.77;;
4323;SDS011;2175;51.018;6.994;2022-08-05T08:04:35;51.07;;;41.73;;
4323;SDS011;2175;51.018;6.994;2022-08-05T08:07:00;53.03;;;41.40;;
4323;SDS011;2175;51.018;6.994;2022-08-05T08:09:26;53.33;;;40.87;;
4323;SDS011;2175;51.018;6.994;2022-08-05T08:11:52;53.40;;;41.93;;
4323;SDS011;2175;51.018;6.994;2022-08-05T08:14:17;61.80;;;45.53;;
4323;SDS011;2175;51.018;6.994;2022-08-05T08:16:43;54.67;;;43.50;;
4323;SDS011;2175;51.018;6.994;2022-08-05T08:19:09;62.23;;;47.60;;
4323;SDS011;2175;51.018;6.994;2022-08-05T08:21:34;68.20;;;51.10;;
4323;SDS011;2175;51.018;6.994;2022-08-05T08:24:00;58.40;;;47.43;;
4323;SDS011;2175;51.018;6.994;2022-08-05T08:26:26;60.97;;;44.70;;
4323;SDS011;2175;51.018;6.994;2022-08-05T08:28:51;43.00;;;34.83;;
4323;SDS011;2175;51.018;6.994;2022-08-05T08:31:17;39.70;;;30.53;;
4323;SDS011;2175;51.018;6.994;2022-08-05T08:33:42;46.30;;;33.90;;
4323;SDS011;2175;51.018;6.994;2022-08-05T08:36:08;45.63;;;36.13;;
4323;SDS011;2175;51.018;6.994;2022-08-05T08:38:34;51.60;;;34.87;;
4323;SDS011;2175;51.018;6.994;2022-08-05T08:41:00;43.13;;;31.27;;
4323;SDS011;2175;51.018;6.994;2022-08-05T08:43:30;42.73;;;30.73;;
4323;SDS011;2175;51.018;6.994;2022-08-05T08:45:57;41.20;;;29.83;;
4323;SDS011;2175;51.018;6.994;2022-08-05T08:48:25;36.00;;;26.10;;
4323;SDS011;2175;51.018;6.994;2022-08-05T08:50:54;34.73;;;26.00;;
4323;SDS011;2175;51.018;6.994;2022-08-05T08:53:20;39.23;;;28.30;;
4323;SDS011;2175;51.018;6.994;2022-08-05T08:55:47;40.63;;;27.67;;
4323;SDS011;2175;51.018;6.994;2022-08-05T08:58:13;41.20;;;27.93;;
4323;SDS011;2175;51.018;6.994;2022-08-05T09:00:40;40.33;;;28.90;;
4323;SDS011;2175;51.018;6.994;2022-08-05T09:03:06;42.30;;;29.00;;
4323;SDS011;2175;51.018;6.994;2022-08-05T09:05:33;38.77;;;28.80;;
4323;SDS011;2175;51.018;6.994;2022-08-05T09:07:58;47.30;;;33.60;;
4323;SDS011;2175;51.018;6.994;2022-08-05T09:10:24;50.57;;;36.10;;
4323;SDS011;2175;51.018;6.994;2022-08-05T09:12:50;45.00;;;35.13;;
4323;SDS011;2175;51.018;6.994;2022-08-05T09:15:16;55.37;;;37.80;;
4323;SDS011;2175;51.018;6.994;2022-08-05T09:17:42;53.40;;;38.80;;
4323;SDS011;2175;51.018;6.994;2022-08-05T09:20:07;57.53;;;42.10;;
4323;SDS011;2175;51.018;6.994;2022-08-05T09:25:38;36.60;;;29.23;;
4323;SDS011;2175;51.018;6.994;2022-08-05T09:28:22;33.23;;;28.67;;
4323;SDS011;2175;51.018;6.994;2022-08-05T09:30:56;27.13;;;23.97;;
4323;SDS011;2175;51.018;6.994;2022-08-05T09:33:24;28.33;;;22.07;;
4323;SDS011;2175;51.018;6.994;2022-08-05T09:36:01;26.60;;;22.73;;
4323;SDS011;2175;51.018;6.994;2022-08-05T09:38:28;29.20;;;21.43;;
4323;SDS011;2175;51.018;6.994;2022-08-05T09:41:04;27.50;;;19.87;;
4323;SDS011;2175;51.018;6.994;2022-08-05T09:43:32;24.60;;;17.57;;
4323;SDS011;2175;51.018;6.994;2022-08-05T09:45:59;25.87;;;18.47;;
4323;SDS011;2175;51.018;6.994;2022-08-05T09:48:29;20.87;;;17.03;;
4323;SDS011;2175;51.018;6.994;2022-08-05T09:50:57;20.50;;;16.93;;
4323;SDS011;2175;51.018;6.994;2022-08-05T09:53:24;18.60;;;16.70;;
4323;SDS011;2175;51.018;6.994;2022-08-05T09:55:52;19.83;;;17.20;;
4323;SDS011;2175;51.018;6.994;2022-08-05T09:58:21;19.70;;;16.27;;
4323;SDS011;2175;51.018;6.994;2022-08-05T10:03:26;22.83;;;16.90;;
4323;SDS011;2175;51.018;6.994;2022-08-05T10:05:59;20.40;;;15.77;;
4323;SDS011;2175;51.018;6.994;2022-08-05T10:08:26;19.03;;;16.60;;
4323;SDS011;2175;51.018;6.994;2022-08-05T10:10:52;20.87;;;15.33;;
4323;SDS011;2175;51.018;6.994;2022-08-05T10:13:31;18.47;;;14.17;;
4323;SDS011;2175;51.018;6.994;2022-08-05T10:16:00;23.07;;;14.87;;
4323;SDS011;2175;51.018;6.994;2022-08-05T10:18:27;18.73;;;13.87;;
4323;SDS011;2175;51.018;6.994;2022-08-05T10:21:00;14.50;;;12.50;;
4323;SDS011;2175;51.018;6.994;2022-08-05T10:23:29;14.47;;;13.03;;
4323;SDS011;2175;51.018;6.994;2022-08-05T10:25:57;20.13;;;14.80;;
4323;SDS011;2175;51.018;6.994;2022-08-05T10:28:25;21.00;;;15.23;;
4323;SDS011;2175;51.018;6.994;2022-08-05T10:30:51;25.00;;;14.40;;
4323;SDS011;2175;51.018;6.994;2022-08-05T10:33:18;31.40;;;18.70;;
4323;SDS011;2175;51.018;6.994;2022-08-05T10:35:44;15.50;;;11.33;;
4323;SDS011;2175;51.018;6.994;2022-08-05T10:38:11;15.37;;;11.43;;
4323;SDS011;2175;51.018;6.994;2022-08-05T10:40:51;14.73;;;10.27;;
4323;SDS011;2175;51.018;6.994;2022-08-05T10:46:10;14.90;;;8.70;;
4323;SDS011;2175;51.018;6.994;2022-08-05T10:48:38;12.77;;;8.83;;
4323;SDS011;2175;51.018;6.994;2022-08-05T10:56:27;14.00;;;8.00;;
4323;SDS011;2175;51.018;6.994;2022-08-05T11:04:09;15.43;;;7.33;;
4323;SDS011;2175;51.018;6.994;2022-08-05T11:09:37;16.37;;;8.17;;
4323;SDS011;2175;51.018;6.994;2022-08-05T11:15:03;11.63;;;7.33;;
4323;SDS011;2175;51.018;6.994;2022-08-05T11:17:30;14.17;;;7.90;;
4323;SDS011;2175;51.018;6.994;2022-08-05T11:19:58;14.33;;;7.67;;
4323;SDS011;2175;51.018;6.994;2022-08-05T11:22:39;9.03;;;7.30;;
4323;SDS011;2175;51.018;6.994;2022-08-05T11:27:56;12.60;;;7.60;;
4323;SDS011;2175;51.018;6.994;2022-08-05T11:36:01;11.33;;;7.00;;
4323;SDS011;2175;51.018;6.994;2022-08-05T11:41:24;15.00;;;7.90;;
4323;SDS011;2175;51.018;6.994;2022-08-05T11:43:56;11.80;;;6.23;;
4323;SDS011;2175;51.018;6.994;2022-08-05T11:46:29;15.63;;;6.07;;
4323;SDS011;2175;51.018;6.994;2022-08-05T11:48:57;11.07;;;6.30;;
4323;SDS011;2175;51.018;6.994;2022-08-05T11:51:24;14.33;;;7.87;;
4323;SDS011;2175;51.018;6.994;2022-08-05T11:53:51;6.50;;;5.80;;
4323;SDS011;2175;51.018;6.994;2022-08-05T11:56:17;6.77;;;4.67;;
4323;SDS011;2175;51.018;6.994;2022-08-05T11:58:44;10.53;;;5.10;;
4323;SDS011;2175;51.018;6.994;2022-08-05T12:01:12;8.10;;;5.20;;
4323;SDS011;2175;51.018;6.994;2022-08-05T12:06:06;7.67;;;4.73;;
4323;SDS011;2175;51.018;6.994;2022-08-05T12:08:38;5.60;;;4.40;;
4323;SDS011;2175;51.018;6.994;2022-08-05T12:11:04;6.53;;;4.10;;
4323;SDS011;2175;51.018;6.994;2022-08-05T12:13:33;5.30;;;4.10;;
4323;SDS011;2175;51.018;6.994;2022-08-05T12:16:00;10.07;;;5.03;;
4323;SDS011;2175;51.018;6.994;2022-08-05T12:18:26;7.20;;;4.50;;
4323;SDS011;2175;51.018;6.994;2022-08-05T12:20:58;10.80;;;4.53;;
4323;SDS011;2175;51.018;6.994;2022-08-05T12:26:18;9.43;;;4.70;;
4323;SDS011;2175;51.018;6.994;2022-08-05T12:28:45;6.50;;;4.27;;
4323;SDS011;2175;51.018;6.994;2022-08-05T12:31:10;7.07;;;4.20;;
4323;SDS011;2175;51.018;6.994;2022-08-05T12:33:36;6.30;;;4.00;;
4323;SDS011;2175;51.018;6.994;2022-08-05T12:36:02;5.70;;;4.90;;
4323;SDS011;2175;51.018;6.994;2022-08-05T12:38:29;10.97;;;4.90;;
4323;SDS011;2175;51.018;6.994;2022-08-05T12:40:55;9.10;;;4.93;;
4323;SDS011;2175;51.018;6.994;2022-08-05T12:43:21;6.83;;;4.00;;
4323;SDS011;2175;51.018;6.994;2022-08-05T12:45:54;9.50;;;5.00;;
4323;SDS011;2175;51.018;6.994;2022-08-05T12:48:23;6.10;;;4.53;;
4323;SDS011;2175;51.018;6.994;2022-08-05T12:53:44;5.40;;;4.10;;
4323;SDS011;2175;51.018;6.994;2022-08-05T12:56:21;7.07;;;4.70;;
4323;SDS011;2175;51.018;6.994;2022-08-05T13:01:40;11.80;;;5.57;;
4323;SDS011;2175;51.018;6.994;2022-08-05T13:04:07;13.97;;;6.70;;
4323;SDS011;2175;51.018;6.994;2022-08-05T13:06:35;7.67;;;4.33;;
4323;SDS011;2175;51.018;6.994;2022-08-05T13:09:08;7.40;;;4.53;;
4323;SDS011;2175;51.018;6.994;2022-08-05T13:11:37;8.30;;;4.47;;
4323;SDS011;2175;51.018;6.994;2022-08-05T13:14:09;12.17;;;4.90;;
4323;SDS011;2175;51.018;6.994;2022-08-05T13:16:56;7.57;;;4.60;;
4323;SDS011;2175;51.018;6.994;2022-08-05T13:19:24;10.30;;;4.97;;
4323;SDS011;2175;51.018;6.994;2022-08-05T13:21:51;6.97;;;5.30;;
4323;SDS011;2175;51.018;6.994;2022-08-05T13:24:18;10.57;;;5.80;;
4323;SDS011;2175;51.018;6.994;2022-08-05T13:26:45;10.10;;;5.30;;
4323;SDS011;2175;51.018;6.994;2022-08-05T13:29:11;7.40;;;4.70;;
4323;SDS011;2175;51.018;6.994;2022-08-05T13:31:38;8.93;;;4.97;;
4323;SDS011;2175;51.018;6.994;2022-08-05T13:34:04;9.73;;;5.53;;
4323;SDS011;2175;51.018;6.994;2022-08-05T13:36:32;7.80;;;4.50;;
4323;SDS011;2175;51.018;6.994;2022-08-05T13:38:59;9.70;;;6.17;;
4323;SDS011;2175;51.018;6.994;2022-08-05T13:41:26;11.00;;;6.23;;
4323;SDS011;2175;51.018;6.994;2022-08-05T13:43:52;15.70;;;5.80;;
4323;SDS011;2175;51.018;6.994;2022-08-05T13:46:18;9.00;;;5.67;;
4323;SDS011;2175;51.018;6.994;2022-08-05T13:48:44;9.50;;;6.20;;
4323;SDS011;2175;51.018;6.994;2022-08-05T13:51:11;11.33;;;5.63;;
4323;SDS011;2175;51.018;6.994;2022-08-05T13:53:40;8.87;;;5.43;;
4323;SDS011;2175;51.018;6.994;2022-08-05T13:56:07;12.20;;;6.20;;
4323;SDS011;2175;51.018;6.994;2022-08-05T13:58:33;12.67;;;5.70;;
4323;SDS011;2175;51.018;6.994;2022-08-05T14:00:59;7.23;;;4.27;;
4323;SDS011;2175;51.018;6.994;2022-08-05T14:03:25;6.90;;;4.27;;
4323;SDS011;2175;51.018;6.994;2022-08-05T14:05:53;6.07;;;3.70;;
4323;SDS011;2175;51.018;6.994;2022-08-05T14:08:19;8.23;;;4.03;;
4323;SDS011;2175;51.018;6.994;2022-08-05T14:10:45;7.33;;;3.90;;
4323;SDS011;2175;51.018;6.994;2022-08-05T14:13:11;7.20;;;4.00;;
4323;SDS011;2175;51.018;6.994;2022-08-05T14:15:36;13.20;;;4.17;;
4323;SDS011;2175;51.018;6.994;2022-08-05T14:18:02;7.00;;;4.60;;
4323;SDS011;2175;51.018;6.994;2022-08-05T14:20:28;8.83;;;3.90;;
4323;SDS011;2175;51.018;6.994;2022-08-05T14:22:54;7.07;;;4.57;;
4323;SDS011;2175;51.018;6.994;2022-08-05T14:25:21;11.30;;;5.60;;
4323;SDS011;2175;51.018;6.994;2022-08-05T14:27:47;16.93;;;7.20;;
4323;SDS011;2175;51.018;6.994;2022-08-05T14:30:13;12.63;;;6.67;;
4323;SDS011;2175;51.018;6.994;2022-08-05T14:32:39;19.83;;;7.73;;
4323;SDS011;2175;51.018;6.994;2022-08-05T14:35:06;14.87;;;6.87;;
4323;SDS011;2175;51.018;6.994;2022-08-05T14:37:32;13.10;;;6.17;;
4323;SDS011;2175;51.018;6.994;2022-08-05T14:39:58;12.63;;;6.80;;
4323;SDS011;2175;51.018;6.994;2022-08-05T14:42:24;11.00;;;5.10;;
4323;SDS011;2175;51.018;6.994;2022-08-05T14:44:49;12.90;;;6.70;;
4323;SDS011;2175;51.018;6.994;2022-08-05T14:47:15;10.50;;;5.23;;
4323;SDS011;2175;51.018;6.994;2022-08-05T14:49:41;6.50;;;3.97;;
4323;SDS011;2175;51.018;6.994;2022-08-05T14:52:06;5.50;;;3.27;;
4323;SDS011;2175;51.018;6.994;2022-08-05T14:54:32;8.87;;;3.93;;
4323;SDS011;2175;51.018;6.994;2022-08-05T14:56:58;7.73;;;4.40;;
4323;SDS011;2175;51.018;6.994;2022-08-05T14:59:24;8.57;;;3.83;;
4323;SDS011;2175;51.018;6.994;2022-08-05T15:01:50;11.00;;;4.83;;
4323;SDS011;2175;51.018;6.994;2022-08-05T15:04:16;11.33;;;5.03;;
4323;SDS011;2175;51.018;6.994;2022-08-05T15:06:43;7.50;;;3.23;;
4323;SDS011;2175;51.018;6.994;2022-08-05T15:09:08;10.23;;;4.37;;
4323;SDS011;2175;51.018;6.994;2022-08-05T15:11:40;12.20;;;5.07;;
4323;SDS011;2175;51.018;6.994;2022-08-05T15:14:06;9.33;;;3.77;;
4323;SDS011;2175;51.018;6.994;2022-08-05T15:16:31;5.20;;;2.80;;
4323;SDS011;2175;51.018;6.994;2022-08-05T15:18:57;4.43;;;3.03;;
4323;SDS011;2175;51.018;6.994;2022-08-05T15:21:22;7.97;;;3.33;;
4323;SDS011;2175;51.018;6.994;2022-08-05T15:23:48;8.83;;;3.70;;
4323;SDS011;2175;51.018;6.994;2022-08-05T15:26:14;5.33;;;2.90;;
4323;SDS011;2175;51.018;6.994;2022-08-05T15:28:41;8.53;;;3.17;;
4323;SDS011;2175;51.018;6.994;2022-08-05T15:31:07;8.20;;;3.30;;
4323;SDS011;2175;51.018;6.994;2022-08-05T15:33:33;7.93;;;3.30;;
4323;SDS011;2175;51.018;6.994;2022-08-05T15:35:59;6.43;;;3.60;;
4323;SDS011;2175;51.018;6.994;2022-08-05T15:38:24;9.63;;;3.80;;
4323;SDS011;2175;51.018;6.994;2022-08-05T15:40:50;8.13;;;3.43;;
4323;SDS011;2175;51.018;6.994;2022-08-05T15:43:16;6.20;;;3.33;;
4323;SDS011;2175;51.018;6.994;2022-08-05T15:45:42;10.47;;;3.47;;
4323;SDS011;2175;51.018;6.994;2022-08-05T15:48:08;5.77;;;3.23;;
4323;SDS011;2175;51.018;6.994;2022-08-05T15:50:34;7.83;;;3.33;;
4323;SDS011;2175;51.018;6.994;2022-08-05T15:53:00;5.63;;;2.97;;
4323;SDS011;2175;51.018;6.994;2022-08-05T15:55:25;5.07;;;3.10;;
4323;SDS011;2175;51.018;6.994;2022-08-05T15:57:51;4.80;;;3.00;;